Flight Track Log - Related Links

Times and Time Zones

All times are in EST time to prevent confusion due to time zone crossing. See the UAL4543 flight status page for this flight to view local times or setup timezone preferences in your user account.

Time Position Orientation Groundspeed Altitude Reporting Facility
EST Latitude Longitude Course Direction KTS MPH feet Rate Location/Type
Sun 09:12:56 PM 40.7111 -74.1522 270° West 158 182 1,100  Level New York Center
Sun 09:13:56 PM 40.7494 -74.1211 32° Northeast 204 235 2,900 2,000 Climbing New York Center
Sun 09:14:56 PM 40.8028 -74.1511 337° Northwest 225 259 5,100 2,150 Climbing New York Center
Sun 09:15:56 PM 40.8319 -74.2267 297° West 253 291 7,200 2,250 Climbing New York Center
Sun 09:16:00 PM 40.7570 -74.6761 270° West  Level Estimated
Sun 09:16:56 PM 40.8394 -74.3231 276° West 263 303 9,600  Level New York Center
Sun 09:17:00 PM 40.7728 -74.8032 303° West  Level Estimated
Sun 09:17:56 PM 40.8472 -74.4086 277° West 263 303 10,700  Level New York Center
Sun 09:18:00 PM 40.7885 -74.9303 270° West  Level Estimated
Sun 09:18:56 PM 40.8581 -74.5297 277° West 284 327 11,500  Level New York Center
Sun 09:19:56 PM 40.8694 -74.6292 279° West 309 356 12,800 1,450 Climbing New York Center
Sun 09:20:56 PM 40.8817 -74.7589 277° West 321 369 14,400 1,450 Climbing New York Center
Sun 09:21:56 PM 40.8906 -74.8636 276° West 321 369 15,700 1,200 Climbing New York Center
Sun 09:22:56 PM 40.9028 -74.9933 277° West 329 379 16,800 650 Climbing New York Center
Sun 09:23:56 PM 40.9153 -75.1122 278° West 329 379 17,000 450 Climbing New York Center
Sun 09:24:56 PM 40.9025 -75.2294 262° West 343 395 17,700 800 Climbing New York Center
Sun 09:25:56 PM 40.8789 -75.3514 256° West 349 402 18,600 1,100 Climbing New York Center
Sun 09:26:56 PM 40.8486 -75.4867 254° West 354 407 19,900 1,150 Climbing New York Center
Sun 09:27:56 PM 40.8164 -75.6133 251° West 354 407 20,900 1,050 Climbing New York Center
Sun 09:28:56 PM 40.7864 -75.7372 252° West 354 407 22,000 1,100 Climbing New York Center
Sun 09:29:56 PM 40.7558 -75.8639 252° West 359 413 23,100 1,100 Climbing New York Center
Sun 09:30:56 PM 40.7275 -75.9906 254° West 359 413 24,200 1,150 Climbing New York Center
Sun 09:31:56 PM 40.6969 -76.1142 252° West 359 413 25,400 1,250 Climbing New York Center
Sun 09:32:56 PM 40.6686 -76.2350 253° West 359 413 26,700 1,200 Climbing New York Center
Sun 09:33:56 PM 40.6819 -76.3508 279° West 334 384 27,800 950 Climbing New York Center
Sun 09:34:56 PM 40.6936 -76.4533 279° West 326 375 28,600 900 Climbing New York Center
Sun 09:35:56 PM 40.7111 -76.5642 282° West 320 368 29,600 1,000 Climbing New York Center
Sun 09:36:56 PM 40.7306 -76.6808 282° West 320 368 30,600 1,000 Climbing New York Center
Sun 09:37:56 PM 40.7478 -76.7947 281° West 320 368 31,600 1,100 Climbing New York Center
Sun 09:38:56 PM 40.7625 -76.9111 280° West 320 368 32,800 1,200 Climbing New York Center
Sun 09:39:56 PM 40.7794 -77.0250 281° West 320 368 34,000 1,100 Climbing New York Center
Sun 09:40:56 PM 40.7967 -77.1308 282° West 315 362 35,000 900 Climbing New York Center
Sun 09:41:56 PM 40.8117 -77.2419 280° West 315 362 35,800 306 Climbing New York Center
Sun 09:44:12 PM 40.8428 -77.5083 279° West 327 376 36,000 61 Climbing Cleveland Center
Sun 09:45:13 PM 40.8569 -77.6383 278° West 358 412 36,000  Level Cleveland Center
Sun 09:46:15 PM 40.8697 -77.7700 277° West 368 423 36,000  Level Cleveland Center
Sun 09:47:16 PM 40.8856 -77.9042 279° West 370 426 36,000  Level Cleveland Center
Sun 09:48:18 PM 40.8992 -78.0406 278° West 374 430 36,000  Level Cleveland Center
Sun 09:49:19 PM 40.9167 -78.2017 278° West 374 430 36,000  Level Cleveland Center
Sun 09:50:21 PM 40.9306 -78.3308 278° West 373 429 36,000  Level Cleveland Center
Sun 09:51:22 PM 40.9419 -78.4667 276° West 381 438 36,000  Level Cleveland Center
Sun 09:52:24 PM 40.9558 -78.6006 278° West 382 440 36,000  Level Cleveland Center
Sun 09:53:25 PM 40.9747 -78.7444 280° West 404 465 36,000  Level Cleveland Center
Sun 09:54:27 PM 40.9831 -78.8736 275° West 393 452 36,000  Level Cleveland Center
Sun 09:55:28 PM 40.9989 -79.0356 277° West 373 429 36,000  Level Cleveland Center
Sun 09:56:29 PM 41.0125 -79.1731 278° West 377 434 36,000  Level Cleveland Center
Sun 09:57:31 PM 41.0256 -79.3108 277° West 378 435 36,000  Level Cleveland Center
Sun 09:58:32 PM 41.0375 -79.4481 277° West 379 436 36,000  Level Cleveland Center
Sun 09:59:34 PM 41.0503 -79.5847 277° West 377 434 36,000  Level Cleveland Center
Sun 10:00:35 PM 41.0625 -79.7214 277° West 376 433 36,000  Level Cleveland Center
Sun 10:01:37 PM 41.0753 -79.8578 277° West 377 434 36,000  Level Cleveland Center
Sun 10:02:38 PM 41.0869 -79.9944 277° West 377 434 36,000  Level Cleveland Center
Sun 10:03:39 PM 41.1017 -80.1594 277° West 379 436 36,000  Level Cleveland Center
Sun 10:04:41 PM 41.1133 -80.2972 276° West 379 436 36,000  Level Cleveland Center
Sun 10:05:42 PM 41.1258 -80.4361 277° West 381 438 36,000  Level Cleveland Center
Sun 10:06:44 PM 41.1389 -80.5858 277° West 390 449 36,000  Level Cleveland Center
Sun 10:07:45 PM 41.1489 -80.7272 275° West 385 443 36,000  Level Cleveland Center
Sun 10:08:46 PM 41.1614 -80.8672 277° West 381 438 36,000  Level Cleveland Center
Sun 10:09:48 PM 41.1722 -81.0094 276° West 384 442 36,000  Level Cleveland Center
Sun 10:10:49 PM 41.1833 -81.1478 276° West 378 435 36,000  Level Cleveland Center
Sun 10:11:51 PM 41.1936 -81.2856 276° West 372 428 36,000  Level Cleveland Center
Sun 10:12:52 PM 41.2056 -81.4356 276° West 380 437 36,000  Level Cleveland Center
Sun 10:13:53 PM 41.2153 -81.5742 275° West 378 435 36,000  Level Cleveland Center
Sun 10:14:55 PM 41.2253 -81.7108 276° West 375 432 36,000  Level Cleveland Center
Sun 10:15:56 PM 41.2353 -81.8475 276° West 373 429 36,000  Level Cleveland Center
Sun 10:16:57 PM 41.2453 -81.9836 276° West 373 429 36,000  Level Cleveland Center
Sun 10:17:59 PM 41.2558 -82.1306 276° West 376 433 36,000  Level Cleveland Center
Sun 10:19:00 PM 41.2653 -82.2694 275° West 374 430 36,000  Level Cleveland Center
Sun 10:20:01 PM 41.2744 -82.4069 275° West 371 427 36,000  Level Cleveland Center
Sun 10:21:02 PM 41.2833 -82.5436 275° West 369 425 36,000  Level Cleveland Center
Sun 10:22:03 PM 41.2919 -82.6817 275° West 369 425 36,000  Level Cleveland Center
Sun 10:23:04 PM 41.3011 -82.8194 275° West 372 428 36,000  Level Cleveland Center
Sun 10:24:06 PM 41.3114 -82.9822 275° West 373 429 36,000  Level Cleveland Center
Sun 10:25:07 PM 41.3197 -83.1192 275° West 371 427 36,000  Level Cleveland Center
Sun 10:26:08 PM 41.3275 -83.2567 274° West 368 423 36,000  Level Cleveland Center
Sun 10:27:09 PM 41.3358 -83.3908 275° West 366 421 36,000  Level Cleveland Center
Sun 10:28:10 PM 41.3439 -83.5253 275° West 365 420 36,000  Level Cleveland Center
Sun 10:29:11 PM 41.3508 -83.6617 274° West 368 423 36,000  Level Cleveland Center
Sun 10:30:12 PM 41.3581 -83.7958 274° West 364 419 36,000  Level Cleveland Center
Sun 10:32:00 PM 41.3674 -83.9869 274° West  Level FlightAware Approximate
Sun 10:34:16 PM 41.3875 -84.3272 273° West 364 419 36,000  Level Cleveland Center
Sun 10:35:17 PM 41.3928 -84.4606 274° West 363 418 36,000  Level Cleveland Center
Sun 10:36:00 PM 41.3975 -84.5072 274° West  Level Estimated
Sun 10:38:20 PM 41.4147 -84.8961 274° West 370 426 36,000  Level Cleveland Center
Sun 10:39:00 PM 41.4076 -84.9098 273° West  Level FlightAware Approximate
Sun 10:39:21 PM 41.4200 -85.0311 273° West 366 421 36,000  Level Cleveland Center
Sun 10:40:22 PM 41.4253 -85.1636 273° West 358 412 36,000  Level Cleveland Center
Sun 10:41:23 PM 41.4311 -85.2978 273° West 359 413 36,000  Level Cleveland Center
Sun 10:42:24 PM 41.4367 -85.4333 273° West 361 415 36,000  Level Cleveland Center
Sun 10:43:00 PM 41.4443 -85.4302 274° West  Level Estimated
Sun 10:43:25 PM 41.4417 -85.5672 273° West 359 413 36,000  Level Cleveland Center
Sun 10:44:26 PM 41.4467 -85.7003 273° West 357 411 36,000  Level Cleveland Center
Sun 10:45:52 PM 41.4528 -85.8847 273° West 355 409 36,000  Level Chicago Center
Sun 10:46:53 PM 41.4581 -86.0150 273° West 353 406 36,000  Level Chicago Center
Sun 10:48:00 PM 41.4512 -86.1586 266° West  Level FlightAware Approximate
Sun 10:49:56 PM 41.4714 -86.4028 272° West 349 402 36,000  Level Chicago Center
Sun 10:50:57 PM 41.4750 -86.5303 272° West 346 398 36,000  Level Chicago Center
Sun 10:52:00 PM 41.4776 -86.6656 272° West  Level FlightAware Approximate
Sun 10:55:00 PM 41.4849 -87.0598 272° West  Level FlightAware Approximate
Sun 10:55:01 PM 41.4900 -87.0803 272° West 359 413 36,000  Level Chicago Center
Sun 10:56:02 PM 41.4939 -87.2156 272° West 364 419 36,000  Level Chicago Center
Sun 10:57:03 PM 41.4975 -87.3475 272° West 361 415 36,000  Level Chicago Center
Sun 10:58:03 PM 41.5003 -87.4819 272° West 363 418 36,000  Level Chicago Center
Sun 10:59:00 PM 41.4964 -87.5677 272° West  Level FlightAware Approximate
Sun 10:59:04 PM 41.5036 -87.6153 272° West 363 418 36,000  Level Chicago Center
Sun 11:00:00 PM 41.4990 -87.6966 272° West  Level FlightAware Approximate
Sun 11:00:05 PM 41.5061 -87.7481 271° West 361 415 36,000  Level Chicago Center
Sun 11:01:06 PM 41.5081 -87.8797 271° West 360 414 36,000  Level Chicago Center
Sun 11:02:07 PM 41.5108 -88.0350 271° West 361 415 36,000  Level Chicago Center
Sun 11:03:07 PM 41.5153 -88.1656 273° West 362 417 36,000  Level Chicago Center
Sun 11:04:08 PM 41.5164 -88.2972 271° West 361 415 36,000  Level Chicago Center
Sun 11:05:09 PM 41.5175 -88.4300 271° West 362 417 36,000  Level Chicago Center
Sun 11:06:10 PM 41.5189 -88.5631 271° West 361 415 36,000  Level Chicago Center
Sun 11:07:10 PM 41.5211 -88.6950 271° West 359 413 36,000  Level Chicago Center
Sun 11:08:11 PM 41.5228 -88.8289 271° West 362 417 36,000  Level Chicago Center
Sun 11:09:11 PM 41.5239 -88.9614 271° West 359 413 36,000  Level Chicago Center
Sun 11:10:12 PM 41.5253 -89.0936 271° West 359 413 36,000  Level Chicago Center
Sun 11:11:13 PM 41.5278 -89.2364 271° West 364 419 36,000  Level Chicago Center
Sun 11:12:13 PM 41.5306 -89.3697 272° West 361 415 36,000  Level Chicago Center
Sun 11:13:14 PM 41.5328 -89.5042 271° West 363 418 36,000  Level Chicago Center
Sun 11:14:15 PM 41.5361 -89.6381 272° West 363 418 36,000  Level Chicago Center
Sun 11:15:15 PM 41.5389 -89.7719 272° West 362 417 36,000  Level Chicago Center
Sun 11:16:16 PM 41.5397 -89.9050 271° West 361 415 36,000  Level Chicago Center
Sun 11:17:17 PM 41.5433 -90.0386 272° West 362 417 36,000  Level Chicago Center
Sun 11:18:17 PM 41.5439 -90.1728 270° West 364 419 36,000  Level Chicago Center
Sun 11:19:18 PM 41.5444 -90.3389 270° West 377 434 36,000  Level Chicago Center
Sun 11:20:18 PM 41.5464 -90.4725 271° West 366 421 36,000  Level Chicago Center
Sun 11:21:19 PM 41.5478 -90.6083 271° West 366 421 36,000  Level Chicago Center
Sun 11:22:19 PM 41.5483 -90.7253 270° West 363 418 36,000  Level Chicago Center
Sun 11:23:20 PM 41.5494 -90.8608 271° West 367 422 36,000  Level Chicago Center
Sun 11:24:20 PM 41.5503 -90.9933 271° West 362 417 36,000 -545 Level Chicago Center
Sun 11:25:21 PM 41.5511 -91.1269 271° West 362 417 34,900 -1,574 Descending Chicago Center
Sun 11:26:22 PM 41.5511 -91.2775 270° West 344 396 32,800 -1,934 Descending Chicago Center
Sun 11:27:22 PM 41.5522 -91.4017 271° West 338 389 31,000 -1,686 Descending Chicago Center
Sun 11:28:23 PM 41.5517 -91.5311 270° West 347 399 29,400 -1,835 Descending Chicago Center
Sun 11:29:23 PM 41.5519 -91.6733 270° West 379 436 27,300 -2,033 Descending Chicago Center
Sun 11:30:24 PM 41.5522 -91.8189 270° West 390 449 25,300 -1,983 Descending Chicago Center
Sun 11:31:24 PM 41.5514 -91.9650 270° West 397 457 23,300 -1,983 Descending Chicago Center
Sun 11:32:25 PM 41.5511 -92.1028 270° West 378 435 21,300 -1,983 Descending Chicago Center
Sun 11:33:25 PM 41.5506 -92.2397 270° West 373 429 19,300 -1,934 Descending Chicago Center
Sun 11:34:26 PM 41.5500 -92.3783 270° West 376 433 17,400 -1,934 Descending Chicago Center
Sun 11:35:26 PM 41.5492 -92.5114 270° West 365 420 15,400 -1,835 Descending Chicago Center
Sun 11:36:27 PM 41.5483 -92.6433 270° West 359 413 13,700 -1,636 Descending Chicago Center
Sun 11:37:27 PM 41.5558 -92.7728 274° West 348 400 12,100 -1,488 Descending Chicago Center
Sun 11:38:28 PM 41.5678 -92.8917 278° West 333 383 10,700 -1,200 Descending Chicago Center
Sun 11:39:12 PM 41.5775 -92.9903 278° West 333 383 10,000 -618 Descending Minneapolis Center
Sun 11:39:36 PM 41.5914 -93.0350 293° West 313 360 10,000  Level Minneapolis Center
Sun 11:40:13 PM 41.5908 -93.1019 269° West 317 365 10,000 -90 Level Minneapolis Center
Sun 11:40:43 PM 41.6039 -93.1597 287° West 303 349 9,900 -200 Descending Minneapolis Center
Sun 11:41:13 PM 41.6047 -93.2164 271° West 294 338 9,800 -984 Descending Minneapolis Center
Sun 11:41:44 PM 41.6158 -93.2483 295° West 234 269 8,900 -1,869 Descending Minneapolis Center
Sun 11:42:14 PM 41.6164 -93.3025 271° West 242 278 7,900 -2,000 Descending Minneapolis Center
Sun 11:42:44 PM 41.6278 -93.3394 292° West 242 278 6,900 -1,869 Descending Minneapolis Center
Sun 11:43:15 PM 41.6283 -93.3903 271° West 240 276 6,000 -1,770 Descending Minneapolis Center
Sun 11:43:45 PM 41.6417 -93.4253 297° West 236 272 5,100 -1,800 Descending Minneapolis Center
Sun 11:44:15 PM 41.6428 -93.4750 272° West 236 272 4,200 -1,574 Descending Minneapolis Center
Sun 11:44:46 PM 41.6575 -93.5111 299° West 236 272 3,500 -1,180 Descending Minneapolis Center
Sun 11:45:16 PM 41.6569 -93.5633 269° West 226 260 3,000 -900 Descending Minneapolis Center
Sun 11:45:46 PM 41.6647 -93.5886 292° West 203 234 2,600 -492 Descending Minneapolis Center
Sun 11:46:17 PM 41.6611 -93.6392 265° West 208 239 2,500 -90 Descending Minneapolis Center
Sun 11:46:53 PM 41.6658 -93.6750 280° West 202 232 2,500  Level Minneapolis Center
Sun 11:47:18 PM 41.6494 -93.7081 236° Southwest 194 223 2,500  Level Minneapolis Center
Sun 11:47:54 PM 41.6417 -93.7367 250° West 179 206 2,500 -100 Level Minneapolis Center
Sun 11:48:18 PM 41.6175 -93.7503 203° Southwest 174 200 2,400 -100 Descending Minneapolis Center
Sun 11:48:54 PM 41.6022 -93.7375 148° Southeast 122 140 2,400 -295 Level Minneapolis Center
Sun 11:49:19 PM 41.5864 -93.7353 174° South 118 136 2,100 -590 Descending Minneapolis Center
Sun 11:49:55 PM 41.5808 -93.7075 105° East 101 116 1,800 -500 Descending Minneapolis Center
Sun 11:50:19 PM 41.5661 -93.7053 174° South 108 124 1,600 -590 Descending Minneapolis Center
Sun 11:50:56 PM 41.5597 -93.6772 107° East 113 130 1,200 -689 Descending Minneapolis Center
Sun 11:51:20 PM 41.5428 -93.6694 161° South 117 135 900 -212 Descending Minneapolis Center
Sun 11:52:21 PM 41.5244 -93.6411 131° Southeast 118 136 900  Level Minneapolis Center

Login

Don't have an account? Register now (free) for customized features, flight alerts, and more!